createdAt,value
2024-04-26T00:02:23.208Z,995.40
2024-04-26T00:04:56.403Z,995.38
2024-04-26T00:07:29.136Z,995.38
2024-04-26T00:10:02.329Z,995.37
2024-04-26T00:12:35.493Z,995.35
2024-04-26T00:15:09.302Z,995.36
2024-04-26T00:17:42.393Z,995.35
2024-04-26T00:20:15.387Z,995.33
2024-04-26T00:22:49.293Z,995.33
2024-04-26T00:25:22.370Z,995.32
2024-04-26T00:27:55.366Z,995.30
2024-04-26T00:30:27.982Z,995.28
2024-04-26T00:33:01.667Z,995.26
2024-04-26T00:35:35.385Z,995.23
2024-04-26T00:38:08.369Z,995.21
2024-04-26T00:40:41.370Z,995.18
2024-04-26T00:43:14.345Z,995.17
2024-04-26T00:45:47.414Z,995.17
2024-04-26T00:48:20.449Z,995.17
2024-04-26T00:50:53.608Z,995.15
2024-04-26T00:53:27.326Z,995.11
2024-04-26T00:56:00.404Z,995.09
2024-04-26T00:58:33.287Z,995.08
2024-04-26T01:01:06.422Z,995.05
2024-04-26T01:03:39.382Z,995.03
2024-04-26T01:06:12.499Z,995.01
2024-04-26T01:08:46.533Z,994.99
2024-04-26T01:11:20.464Z,994.94
2024-04-26T01:13:53.469Z,994.91
2024-04-26T01:16:27.361Z,994.88
2024-04-26T01:19:00.816Z,994.84
2024-04-26T01:21:33.329Z,994.80
2024-04-26T01:24:06.526Z,994.77
2024-04-26T01:26:40.426Z,994.80
2024-04-26T01:29:13.475Z,994.83
2024-04-26T01:31:46.664Z,994.85
2024-04-26T01:34:20.542Z,994.87
2024-04-26T01:36:53.431Z,994.88
2024-04-26T01:39:26.304Z,994.91
2024-04-26T01:41:59.599Z,994.91
2024-04-26T01:44:32.362Z,994.94
2024-04-26T01:47:05.149Z,994.95
2024-04-26T01:49:42.356Z,994.97
2024-04-26T01:52:15.474Z,994.98
2024-04-26T01:54:48.658Z,994.98
2024-04-26T01:57:22.489Z,994.99
2024-04-26T01:59:55.503Z,994.99
2024-04-26T02:02:28.500Z,994.99
2024-04-26T02:05:01.227Z,994.99
2024-04-26T02:07:34.430Z,994.99
2024-04-26T02:10:07.507Z,994.98
2024-04-26T02:12:40.616Z,994.97
2024-04-26T02:15:14.559Z,994.98
2024-04-26T02:17:47.597Z,994.95
2024-04-26T02:20:20.408Z,994.96
2024-04-26T02:22:53.561Z,994.94
2024-04-26T02:25:26.658Z,994.92
2024-04-26T02:28:02.464Z,994.91
2024-04-26T02:30:35.444Z,994.91
2024-04-26T02:33:08.813Z,994.90
2024-04-26T02:35:42.822Z,994.88
2024-04-26T02:38:16.683Z,994.86
2024-04-26T02:40:50.615Z,994.84
2024-04-26T02:43:24.657Z,994.84
2024-04-26T02:45:58.657Z,994.84
2024-04-26T02:48:32.616Z,994.83
2024-04-26T02:51:05.704Z,994.83
2024-04-26T02:53:38.824Z,994.82
2024-04-26T02:56:12.593Z,994.84
2024-04-26T02:58:45.617Z,994.84
2024-04-26T03:01:18.579Z,994.85
2024-04-26T03:03:51.644Z,994.85
2024-04-26T03:06:24.553Z,994.86
2024-04-26T03:08:57.611Z,994.84
2024-04-26T03:11:30.654Z,994.81
2024-04-26T03:14:03.616Z,994.80
2024-04-26T03:16:36.578Z,994.78
2024-04-26T03:19:09.704Z,994.76
2024-04-26T03:21:42.658Z,994.73
2024-04-26T03:24:17.668Z,994.71
2024-04-26T03:26:50.852Z,994.69
2024-04-26T03:29:23.782Z,994.67
2024-04-26T03:31:57.848Z,994.66
2024-04-26T03:34:30.559Z,994.66
2024-04-26T03:37:03.671Z,994.66
2024-04-26T03:39:37.534Z,994.64
2024-04-26T03:42:10.579Z,994.61
2024-04-26T03:44:43.591Z,994.60
2024-04-26T03:47:16.856Z,994.57
2024-04-26T03:49:50.743Z,994.56
2024-04-26T03:52:23.669Z,994.56
2024-04-26T03:54:56.720Z,994.56
2024-04-26T03:57:30.797Z,994.57
2024-04-26T04:00:05.088Z,994.60
2024-04-26T04:02:38.677Z,994.61
2024-04-26T04:05:11.724Z,994.61
2024-04-26T04:07:45.647Z,994.60
2024-04-26T04:10:18.438Z,994.60
2024-04-26T04:12:51.892Z,994.59
2024-04-26T04:15:24.735Z,994.60
2024-04-26T04:17:57.771Z,994.62
2024-04-26T04:20:30.808Z,994.62
2024-04-26T04:23:03.670Z,994.60
2024-04-26T04:25:36.578Z,994.62
2024-04-26T04:28:09.627Z,994.63
2024-04-26T04:30:42.608Z,994.63
2024-04-26T04:33:16.028Z,994.63
2024-04-26T04:35:48.833Z,994.62
2024-04-26T04:38:21.914Z,994.59
2024-04-26T04:40:55.694Z,994.58
2024-04-26T04:43:28.713Z,994.60
2024-04-26T04:46:01.752Z,994.59
2024-04-26T04:48:34.719Z,994.58
2024-04-26T04:51:07.959Z,994.61
2024-04-26T04:53:40.658Z,994.65
2024-04-26T04:56:13.974Z,994.68
2024-04-26T04:58:47.710Z,994.69
2024-04-26T05:01:20.823Z,994.69
2024-04-26T05:03:54.020Z,994.70
2024-04-26T05:06:26.800Z,994.71
2024-04-26T05:08:59.880Z,994.72
2024-04-26T05:11:33.787Z,994.73
2024-04-26T05:14:06.840Z,994.75
2024-04-26T05:16:40.664Z,994.76
2024-04-26T05:19:13.776Z,994.76
2024-04-26T05:21:46.730Z,994.77
2024-04-26T05:24:19.931Z,994.78
2024-04-26T05:26:53.726Z,994.79
2024-04-26T05:29:26.638Z,994.78
2024-04-26T05:31:59.861Z,994.81
2024-04-26T05:34:32.725Z,994.81
2024-04-26T05:37:05.828Z,994.81
2024-04-26T05:39:38.536Z,994.83
2024-04-26T05:42:11.780Z,994.85
2024-04-26T05:44:44.779Z,994.87
2024-04-26T05:47:17.661Z,994.88
2024-04-26T05:49:50.481Z,994.90
2024-04-26T05:52:23.648Z,994.89
2024-04-26T05:54:56.611Z,994.92
2024-04-26T05:57:29.684Z,994.94
2024-04-26T06:00:02.974Z,994.95
2024-04-26T06:02:35.548Z,994.95
2024-04-26T06:05:08.799Z,994.95
2024-04-26T06:07:41.520Z,994.96
2024-04-26T06:10:14.645Z,994.96
2024-04-26T06:12:49.524Z,994.97
2024-04-26T06:15:20.932Z,994.97
2024-04-26T06:17:53.645Z,994.97
2024-04-26T06:20:26.672Z,994.98
2024-04-26T06:22:59.895Z,994.99
2024-04-26T06:25:32.923Z,995.00
2024-04-26T06:28:05.819Z,995.00
2024-04-26T06:30:38.833Z,995.00
2024-04-26T06:33:12.055Z,995.00
2024-04-26T06:35:44.853Z,995.00
2024-04-26T06:38:17.647Z,995.01
2024-04-26T06:40:50.648Z,995.01
2024-04-26T06:43:23.641Z,995.03
2024-04-26T06:45:56.694Z,995.03
2024-04-26T06:48:30.242Z,995.03
2024-04-26T06:51:02.789Z,995.03
2024-04-26T06:53:35.825Z,995.02
2024-04-26T06:56:08.741Z,995.02
2024-04-26T06:58:41.567Z,995.03
2024-04-26T07:01:14.842Z,995.05
2024-04-26T07:03:47.863Z,995.06
2024-04-26T07:06:20.842Z,995.09
2024-04-26T07:08:53.642Z,995.11
2024-04-26T07:11:26.937Z,995.13
2024-04-26T07:14:00.019Z,995.17
2024-04-26T07:16:33.822Z,995.19
2024-04-26T07:19:07.390Z,995.21
2024-04-26T07:21:40.898Z,995.25
2024-04-26T07:24:13.978Z,995.28
2024-04-26T07:26:46.615Z,995.29
2024-04-26T07:29:27.204Z,995.33
2024-04-26T07:31:53.023Z,995.35
2024-04-26T07:34:26.076Z,995.36
2024-04-26T07:36:59.032Z,995.35
2024-04-26T07:39:32.069Z,995.35
2024-04-26T07:42:06.299Z,995.37
2024-04-26T07:44:38.915Z,995.39
2024-04-26T07:47:12.124Z,995.40
2024-04-26T07:49:46.195Z,995.41
2024-04-26T07:52:19.026Z,995.41
2024-04-26T07:54:51.641Z,995.41
2024-04-26T07:57:24.968Z,995.43
2024-04-26T07:59:57.972Z,995.42
2024-04-26T08:02:31.157Z,995.42
2024-04-26T08:05:03.985Z,995.43
2024-04-26T08:07:36.808Z,995.43
2024-04-26T08:10:09.917Z,995.44
2024-04-26T08:12:43.142Z,995.44
2024-04-26T08:15:16.204Z,995.44
2024-04-26T08:17:50.420Z,995.46
2024-04-26T08:20:23.322Z,995.47
2024-04-26T08:22:57.070Z,995.46
2024-04-26T08:25:30.139Z,995.46
2024-04-26T08:28:03.146Z,995.46
2024-04-26T08:30:37.088Z,995.46
2024-04-26T08:33:11.811Z,995.48
2024-04-26T08:35:44.107Z,995.47
2024-04-26T08:38:16.931Z,995.46
2024-04-26T08:40:50.002Z,995.47
2024-04-26T08:43:22.989Z,995.46
2024-04-26T08:45:55.723Z,995.46
2024-04-26T08:48:29.085Z,995.45
2024-04-26T08:51:01.983Z,995.46
2024-04-26T08:53:35.092Z,995.45
2024-04-26T08:56:07.929Z,995.44
2024-04-26T08:58:40.793Z,995.44
2024-04-26T09:01:14.191Z,995.43
2024-04-26T09:03:48.447Z,995.43
2024-04-26T09:06:21.151Z,995.45
2024-04-26T09:08:54.199Z,995.46
2024-04-26T09:11:26.987Z,995.46
2024-04-26T09:13:59.985Z,995.48
2024-04-26T09:16:32.974Z,995.49
2024-04-26T09:19:05.999Z,995.49
2024-04-26T09:21:38.983Z,995.52
2024-04-26T09:24:12.144Z,995.53
2024-04-26T09:26:44.921Z,995.55
2024-04-26T09:29:17.936Z,995.57
2024-04-26T09:31:50.767Z,995.57
2024-04-26T09:34:24.206Z,995.56
2024-04-26T09:36:57.314Z,995.57
2024-04-26T09:39:30.216Z,995.57
2024-04-26T09:42:03.451Z,995.57
2024-04-26T09:44:37.294Z,995.59
2024-04-26T09:47:11.289Z,995.61
2024-04-26T09:49:44.889Z,995.64
2024-04-26T09:52:18.147Z,995.65
2024-04-26T09:54:53.040Z,995.64
2024-04-26T09:57:26.225Z,995.65
2024-04-26T09:59:59.064Z,995.64
2024-04-26T10:02:32.408Z,995.63
2024-04-26T10:05:05.365Z,995.63
2024-04-26T10:07:38.199Z,995.63
2024-04-26T10:10:11.165Z,995.63
2024-04-26T10:12:44.236Z,995.62
2024-04-26T10:15:17.121Z,995.62
2024-04-26T10:17:50.290Z,995.61
2024-04-26T10:20:23.478Z,995.61
2024-04-26T10:22:56.939Z,995.59
2024-04-26T10:25:30.278Z,995.58
2024-04-26T10:28:03.912Z,995.56
2024-04-26T10:30:37.559Z,995.55
2024-04-26T10:33:11.483Z,995.54
2024-04-26T10:35:44.212Z,995.54
2024-04-26T10:38:17.245Z,995.52
2024-04-26T10:40:49.927Z,995.48
2024-04-26T10:43:23.282Z,995.45
2024-04-26T10:45:56.166Z,995.44
2024-04-26T10:48:29.581Z,995.40
2024-04-26T10:51:02.368Z,995.39
2024-04-26T10:53:35.558Z,995.38
2024-04-26T10:56:09.328Z,995.35
2024-04-26T10:58:42.306Z,995.34
2024-04-26T11:01:14.974Z,995.32
2024-04-26T11:03:48.072Z,995.31
2024-04-26T11:06:21.297Z,995.30
2024-04-26T11:08:55.780Z,995.29
2024-04-26T11:11:27.398Z,995.29
2024-04-26T11:14:00.216Z,995.27
2024-04-26T11:16:33.136Z,995.26
2024-04-26T11:19:06.420Z,995.25
2024-04-26T11:21:39.175Z,995.25
2024-04-26T11:24:12.441Z,995.24
2024-04-26T11:26:45.509Z,995.24
2024-04-26T11:29:19.275Z,995.25
2024-04-26T11:31:52.347Z,995.26
2024-04-26T11:34:25.613Z,995.27
2024-04-26T11:36:59.348Z,995.27
2024-04-26T11:39:32.170Z,995.28
2024-04-26T11:42:05.124Z,995.26
2024-04-26T11:44:38.154Z,995.27
2024-04-26T11:47:11.206Z,995.27
2024-04-26T11:49:45.001Z,995.28
2024-04-26T11:52:20.347Z,995.29
2024-04-26T11:54:53.028Z,995.31
2024-04-26T11:57:26.656Z,995.32
2024-04-26T12:00:00.110Z,995.34
2024-04-26T12:02:33.231Z,995.35
2024-04-26T12:05:06.103Z,995.35
2024-04-26T12:07:39.498Z,995.36
2024-04-26T12:10:13.230Z,995.36
2024-04-26T12:12:46.225Z,995.37
2024-04-26T12:15:19.624Z,995.38
2024-04-26T12:17:52.158Z,995.40
2024-04-26T12:20:25.630Z,995.40
2024-04-26T12:22:58.358Z,995.41
2024-04-26T12:25:31.513Z,995.43
2024-04-26T12:28:05.074Z,995.43
2024-04-26T12:30:38.438Z,995.45
2024-04-26T12:33:14.152Z,995.45
2024-04-26T12:35:44.316Z,995.47
2024-04-26T12:38:17.330Z,995.47
2024-04-26T12:40:50.592Z,995.48
2024-04-26T12:43:24.485Z,995.49
2024-04-26T12:45:58.548Z,995.49
2024-04-26T12:48:32.677Z,995.49
2024-04-26T12:51:05.668Z,995.49
2024-04-26T12:53:39.925Z,995.51
2024-04-26T12:56:13.449Z,995.49
2024-04-26T12:58:46.477Z,995.49
2024-04-26T13:01:19.299Z,995.48
2024-04-26T13:03:52.288Z,995.48
2024-04-26T13:06:25.400Z,995.46
2024-04-26T13:08:58.441Z,995.45
2024-04-26T13:11:31.635Z,995.44
2024-04-26T13:14:04.468Z,995.44
2024-04-26T13:16:37.405Z,995.42
2024-04-26T13:19:10.693Z,995.39
2024-04-26T13:21:43.466Z,995.38
2024-04-26T13:24:16.335Z,995.37
2024-04-26T13:26:49.419Z,995.36
2024-04-26T13:29:23.306Z,995.35
2024-04-26T13:31:56.472Z,995.36
2024-04-26T13:34:29.778Z,995.36
2024-04-26T13:37:02.394Z,995.37
2024-04-26T13:39:35.483Z,995.37
2024-04-26T13:42:09.084Z,995.38
2024-04-26T13:44:41.522Z,995.38
2024-04-26T13:47:14.639Z,995.36
2024-04-26T13:49:48.674Z,995.35
2024-04-26T13:52:21.554Z,995.37
2024-04-26T13:54:54.466Z,995.37
2024-04-26T13:57:27.546Z,995.38
2024-04-26T14:00:00.613Z,995.41
2024-04-26T14:02:33.531Z,995.42
2024-04-26T14:05:06.699Z,995.42
2024-04-26T14:07:39.667Z,995.43
2024-04-26T14:10:13.625Z,995.43
2024-04-26T14:12:46.647Z,995.45
2024-04-26T14:15:21.293Z,995.45
2024-04-26T14:17:53.593Z,995.42
2024-04-26T14:20:26.567Z,995.41
2024-04-26T14:22:59.512Z,995.40
2024-04-26T14:25:32.395Z,995.39
2024-04-26T14:28:05.605Z,995.40
2024-04-26T14:30:38.658Z,995.42
2024-04-26T14:33:11.645Z,995.42
2024-04-26T14:35:44.780Z,995.42
2024-04-26T14:38:18.647Z,995.39
2024-04-26T14:40:51.517Z,995.38
2024-04-26T14:43:24.662Z,995.38
2024-04-26T14:45:57.528Z,995.40
2024-04-26T14:48:30.643Z,995.40
2024-04-26T14:51:03.571Z,995.38
2024-04-26T14:53:36.667Z,995.38
2024-04-26T14:56:09.762Z,995.38
2024-04-26T14:58:43.699Z,995.39
2024-04-26T15:01:16.603Z,995.40
2024-04-26T15:03:49.908Z,995.41
2024-04-26T15:06:23.649Z,995.41
2024-04-26T15:08:56.292Z,995.41
2024-04-26T15:11:29.660Z,995.40
2024-04-26T15:14:02.681Z,995.41
2024-04-26T15:16:35.650Z,995.42
2024-04-26T15:19:08.800Z,995.43
2024-04-26T15:21:41.903Z,995.43
2024-04-26T15:24:15.754Z,995.43
2024-04-26T15:26:49.759Z,995.43
2024-04-26T15:29:23.703Z,995.43
2024-04-26T15:31:56.611Z,995.41
2024-04-26T15:34:29.859Z,995.42
2024-04-26T15:37:17.624Z,995.42
2024-04-26T15:39:50.689Z,995.41
2024-04-26T15:42:23.696Z,995.43
2024-04-26T15:44:56.632Z,995.43
2024-04-26T15:47:29.603Z,995.45
2024-04-26T15:50:02.441Z,995.45
2024-04-26T15:52:35.879Z,995.45
2024-04-26T15:55:09.733Z,995.45
2024-04-26T15:57:42.706Z,995.45
2024-04-26T16:00:15.728Z,995.45
2024-04-26T16:02:48.925Z,995.44
2024-04-26T16:05:24.159Z,995.45
2024-04-26T16:07:57.847Z,995.46
2024-04-26T16:10:31.890Z,995.46
2024-04-26T16:13:05.665Z,995.46
2024-04-26T16:15:38.720Z,995.46
2024-04-26T16:18:11.802Z,995.45
2024-04-26T16:20:44.802Z,995.45
2024-04-26T16:23:18.934Z,995.44
2024-04-26T16:25:52.831Z,995.43
2024-04-26T16:28:25.844Z,995.43
2024-04-26T16:30:59.706Z,995.44
2024-04-26T16:33:32.813Z,995.44
2024-04-26T16:36:05.838Z,995.44
2024-04-26T16:38:38.761Z,995.46
2024-04-26T16:41:11.672Z,995.49
2024-04-26T16:43:44.941Z,995.52
2024-04-26T16:46:18.799Z,995.54
2024-04-26T16:48:51.815Z,995.56
2024-04-26T16:51:24.834Z,995.57
2024-04-26T16:53:57.438Z,995.57
2024-04-26T16:56:30.808Z,995.56
2024-04-26T16:59:03.425Z,995.55
2024-04-26T17:01:39.768Z,995.55
2024-04-26T17:04:10.809Z,995.55
2024-04-26T17:06:43.854Z,995.56
2024-04-26T17:09:16.674Z,995.57
2024-04-26T17:11:49.892Z,995.58
2024-04-26T17:14:22.899Z,995.59
2024-04-26T17:16:56.756Z,995.60
2024-04-26T17:19:30.075Z,995.62
2024-04-26T17:22:03.674Z,995.64
2024-04-26T17:24:36.619Z,995.64
2024-04-26T17:27:09.690Z,995.65
2024-04-26T17:29:42.617Z,995.65
2024-04-26T17:32:15.505Z,995.67
2024-04-26T17:34:48.562Z,995.68
2024-04-26T17:37:21.580Z,995.67
2024-04-26T17:39:54.839Z,995.69
2024-04-26T17:42:27.737Z,995.71
2024-04-26T17:45:00.615Z,995.72
2024-04-26T17:47:33.827Z,995.73
2024-04-26T17:50:06.565Z,995.75
2024-04-26T17:52:40.061Z,995.74
2024-04-26T17:55:13.863Z,995.74
2024-04-26T17:57:46.934Z,995.74
2024-04-26T18:00:20.015Z,995.75
2024-04-26T18:02:53.767Z,995.77
2024-04-26T18:05:26.761Z,995.79
2024-04-26T18:07:59.632Z,995.81
2024-04-26T18:10:32.673Z,995.83
2024-04-26T18:13:05.874Z,995.87
2024-04-26T18:15:38.716Z,995.89
2024-04-26T18:18:11.808Z,995.90
2024-04-26T18:20:44.734Z,995.93
2024-04-26T18:23:31.692Z,995.96
2024-04-26T18:26:04.735Z,996.01
2024-04-26T18:28:38.011Z,996.03
2024-04-26T18:31:14.610Z,996.06
2024-04-26T18:33:48.025Z,996.10
2024-04-26T18:36:20.642Z,996.13
2024-04-26T18:38:53.591Z,996.16
2024-04-26T18:41:26.595Z,996.18
2024-04-26T18:43:59.661Z,996.22
2024-04-26T18:46:32.714Z,996.25
2024-04-26T18:49:05.627Z,996.28
2024-04-26T18:51:52.779Z,996.29
2024-04-26T18:54:25.901Z,996.30
2024-04-26T18:56:59.033Z,996.32
2024-04-26T18:59:31.787Z,996.34
2024-04-26T19:02:04.720Z,996.34
2024-04-26T19:04:39.148Z,996.38
2024-04-26T19:07:10.815Z,996.40
2024-04-26T19:09:43.817Z,996.43
2024-04-26T19:12:16.879Z,996.47
2024-04-26T19:14:49.804Z,996.50
2024-04-26T19:17:22.799Z,996.55
2024-04-26T19:19:55.844Z,996.60
2024-04-26T19:22:28.958Z,996.64
2024-04-26T19:25:01.802Z,996.68
2024-04-26T19:27:34.880Z,996.71
2024-04-26T19:30:07.832Z,996.74
2024-04-26T19:32:40.981Z,996.76
2024-04-26T19:35:13.995Z,996.79
2024-04-26T19:37:46.853Z,996.80
2024-04-26T19:40:19.698Z,996.83
2024-04-26T19:42:53.029Z,996.82
2024-04-26T19:45:25.847Z,996.83
2024-04-26T19:47:59.104Z,996.83
2024-04-26T19:50:32.783Z,996.83
2024-04-26T19:53:06.142Z,996.84
2024-04-26T19:55:39.297Z,996.86
2024-04-26T19:58:13.043Z,996.87
2024-04-26T20:00:46.034Z,996.86
2024-04-26T20:03:19.367Z,996.88
2024-04-26T20:05:53.211Z,996.90
2024-04-26T20:08:26.857Z,996.90
2024-04-26T20:11:00.018Z,996.91
2024-04-26T20:13:32.959Z,996.92
2024-04-26T20:16:06.112Z,996.92
2024-04-26T20:18:38.906Z,996.92
2024-04-26T20:21:12.078Z,996.92
2024-04-26T20:23:45.013Z,996.93
2024-04-26T20:26:17.979Z,996.94
2024-04-26T20:28:51.135Z,996.95
2024-04-26T20:31:24.246Z,996.95
2024-04-26T20:33:56.893Z,996.96
2024-04-26T20:36:30.055Z,996.96
2024-04-26T20:39:02.723Z,996.96
2024-04-26T20:41:36.101Z,996.97
2024-04-26T20:44:08.753Z,996.98
2024-04-26T20:46:42.012Z,996.98
2024-04-26T20:49:15.298Z,996.97
2024-04-26T20:51:48.984Z,996.98
2024-04-26T20:54:21.861Z,996.98
2024-04-26T20:56:55.408Z,996.98
2024-04-26T20:59:29.049Z,996.98
2024-04-26T21:02:02.049Z,996.99
2024-04-26T21:04:35.182Z,997.00
2024-04-26T21:07:08.103Z,997.01
2024-04-26T21:09:41.009Z,997.02
2024-04-26T21:12:13.949Z,997.02
2024-04-26T21:14:47.262Z,997.01
2024-04-26T21:17:21.382Z,996.99
2024-04-26T21:19:55.215Z,997.00
2024-04-26T21:22:28.266Z,996.99
2024-04-26T21:25:02.106Z,996.99
2024-04-26T21:27:35.109Z,997.01
2024-04-26T21:30:07.859Z,997.02
2024-04-26T21:32:41.036Z,997.03
2024-04-26T21:35:14.258Z,997.04
2024-04-26T21:37:49.212Z,997.04
2024-04-26T21:40:21.830Z,997.05
2024-04-26T21:42:54.970Z,997.06
2024-04-26T21:45:28.209Z,997.05
2024-04-26T21:48:01.350Z,997.06
2024-04-26T21:50:35.158Z,997.06
2024-04-26T21:53:08.164Z,997.08
2024-04-26T21:55:41.215Z,997.10
2024-04-26T21:58:13.921Z,997.10
2024-04-26T22:00:47.016Z,997.09
2024-04-26T22:03:19.892Z,997.11
2024-04-26T22:05:53.016Z,997.11
2024-04-26T22:08:26.368Z,997.13
2024-04-26T22:11:00.203Z,997.16
2024-04-26T22:13:33.163Z,997.16
2024-04-26T22:16:05.899Z,997.16
2024-04-26T22:18:39.124Z,997.17
2024-04-26T22:21:12.167Z,997.18
2024-04-26T22:23:45.304Z,997.20
2024-04-26T22:26:18.469Z,997.20
2024-04-26T22:28:52.347Z,997.22
2024-04-26T22:31:25.333Z,997.25
2024-04-26T22:33:58.340Z,997.27
2024-04-26T22:36:31.284Z,997.27
2024-04-26T22:39:05.525Z,997.28
2024-04-26T22:41:39.141Z,997.27
2024-04-26T22:44:12.296Z,997.28
2024-04-26T22:46:45.410Z,997.28
2024-04-26T22:51:52.311Z,997.27
2024-04-26T22:54:25.336Z,997.28
2024-04-26T22:56:58.315Z,997.29
2024-04-26T22:59:31.454Z,997.28
2024-04-26T23:02:05.193Z,997.28
2024-04-26T23:04:38.358Z,997.27
2024-04-26T23:07:11.262Z,997.27
2024-04-26T23:09:44.375Z,997.27
2024-04-26T23:12:16.973Z,997.26
2024-04-26T23:14:50.174Z,997.28
2024-04-26T23:17:23.440Z,997.29
2024-04-26T23:19:56.357Z,997.32
2024-04-26T23:22:29.169Z,997.34
2024-04-26T23:25:02.393Z,997.36
2024-04-26T23:27:35.323Z,997.39
2024-04-26T23:30:08.231Z,997.39
2024-04-26T23:32:41.442Z,997.40
2024-04-26T23:35:14.293Z,997.38
2024-04-26T23:37:47.449Z,997.36
2024-04-26T23:40:21.312Z,997.36
2024-04-26T23:42:54.458Z,997.35
2024-04-26T23:45:27.366Z,997.35
2024-04-26T23:48:00.637Z,997.33
2024-04-26T23:50:34.397Z,997.32
2024-04-26T23:53:07.491Z,997.30
2024-04-26T23:55:40.214Z,997.27
2024-04-26T23:58:13.321Z,997.24
